createdAt,value
2022-11-21T00:14:29.491Z,1.5
2022-11-21T00:24:29.651Z,1.5
2022-11-21T00:34:30.106Z,1.4
2022-11-21T00:44:30.967Z,1.4
2022-11-21T00:54:31.592Z,1.4
2022-11-21T01:04:32.363Z,1.4
2022-11-21T01:44:35.203Z,1.3
2022-11-21T01:54:35.879Z,1.3
2022-11-21T02:04:36.231Z,1.2
2022-11-21T02:34:37.078Z,1.2
2022-11-21T02:54:38.057Z,1.1
2022-11-21T03:04:38.322Z,1.1
2022-11-21T03:24:38.999Z,1.1
2022-11-21T03:34:39.361Z,1.1
2022-11-21T03:44:40.005Z,1.1
2022-11-21T03:54:40.736Z,1
2022-11-21T04:04:41.567Z,1.1
2022-11-21T04:14:41.897Z,1.1
2022-11-21T04:24:42.211Z,1.1
2022-11-21T04:34:42.863Z,1.1
2022-11-21T04:44:43.086Z,1.1
2022-11-21T04:54:44.050Z,0.9
2022-11-21T05:04:44.245Z,1
2022-11-21T05:14:44.466Z,1.1
2022-11-21T05:24:44.638Z,1
2022-11-21T05:44:46.332Z,0.9
2022-11-21T05:54:47.404Z,0.8
2022-11-21T06:04:48.339Z,0.8
2022-11-21T06:14:48.447Z,0.8
2022-11-21T06:24:48.610Z,0.9
2022-11-21T06:44:49.769Z,0.9
2022-11-21T06:54:50.267Z,1
2022-11-21T07:04:50.693Z,1.1
2022-11-21T07:14:51.761Z,1.2
2022-11-21T07:24:52.472Z,1.2
2022-11-21T07:34:53.056Z,1.2
2022-11-21T07:44:53.494Z,1.2
2022-11-21T07:54:53.738Z,1.3
2022-11-21T08:04:53.892Z,1.4
2022-11-21T08:24:54.966Z,1.4
2022-11-21T08:34:55.389Z,1.5
2022-11-21T08:44:56.369Z,1.6
2022-11-21T08:54:56.958Z,1.7
2022-11-21T09:04:57.070Z,1.7
2022-11-21T09:14:57.336Z,1.8
2022-11-21T09:24:58.166Z,1.9
2022-11-21T09:34:58.844Z,1.9
2022-11-21T09:44:59.363Z,2
2022-11-21T09:55:00.338Z,2.1
2022-11-21T10:05:01.366Z,2.2
2022-11-21T10:15:02.307Z,2.4
2022-11-21T10:25:02.381Z,2.5
2022-11-21T10:35:02.952Z,2.7
2022-11-21T10:45:03.107Z,2.6
2022-11-21T10:55:04.071Z,2.7
2022-11-21T11:15:04.935Z,3.1
2022-11-21T11:25:05.180Z,3.3
2022-11-21T11:35:06.164Z,3.4
2022-11-21T11:45:06.689Z,3.6
2022-11-21T11:55:07.218Z,3.7
2022-11-21T12:05:07.848Z,3.8
2022-11-21T12:15:08.021Z,4
2022-11-21T12:25:08.314Z,4.2
2022-11-21T12:35:09.049Z,4.5
2022-11-21T12:45:09.715Z,4.5
2022-11-21T12:55:10.304Z,4.5
2022-11-21T13:05:10.730Z,4.6
2022-11-21T13:15:11.555Z,4.8
2022-11-21T13:25:12.553Z,4.8
2022-11-21T13:35:14.802Z,4.9
2022-11-21T13:45:13.084Z,5
2022-11-21T13:55:13.735Z,5.1
2022-11-21T14:25:14.945Z,5.5
2022-11-21T14:35:15.664Z,5.5
2022-11-21T14:45:16.606Z,5.5
2022-11-21T14:55:31.425Z,5.5
2022-11-21T15:05:29.094Z,5.4
2022-11-21T15:15:18.497Z,5.3
2022-11-21T15:25:19.389Z,5.1
2022-11-21T15:35:19.742Z,5
2022-11-21T15:45:20.423Z,4.8
2022-11-21T15:55:20.912Z,4.7
2022-11-21T16:05:21.061Z,4.6
2022-11-21T16:15:21.754Z,4.5
2022-11-21T16:25:22.398Z,4.4
2022-11-21T16:45:24.184Z,4.1
2022-11-21T16:55:24.905Z,4
2022-11-21T17:05:25.244Z,4
2022-11-21T17:15:26.096Z,4
2022-11-21T17:25:26.341Z,4
2022-11-21T17:35:27.356Z,4.1
2022-11-21T17:45:28.087Z,4
2022-11-21T17:55:28.348Z,4
2022-11-21T18:05:29.058Z,3.9
2022-11-21T18:15:29.283Z,3.9
2022-11-21T18:25:30.271Z,4
2022-11-21T18:35:31.377Z,3.9
2022-11-21T18:45:31.556Z,3.8
2022-11-21T18:55:31.774Z,3.8
2022-11-21T19:05:32.313Z,3.7
2022-11-21T19:25:32.839Z,3.9
2022-11-21T19:35:33.052Z,3.8
2022-11-21T19:45:33.433Z,3.8
2022-11-21T19:55:34.415Z,3.8
2022-11-21T20:05:35.257Z,3.7
2022-11-21T20:15:35.478Z,3.7
2022-11-21T20:25:35.771Z,3.7
2022-11-21T20:35:36.487Z,3.7
2022-11-21T20:46:07.564Z,3.8
2022-11-21T20:55:37.472Z,3.9
2022-11-21T21:05:38.110Z,4
2022-11-21T21:15:38.958Z,4
2022-11-21T21:25:39.355Z,4
2022-11-21T21:35:40.302Z,3.9
2022-11-21T21:45:41.146Z,3.9
2022-11-21T21:55:42.163Z,4.1
2022-11-21T22:05:42.931Z,4.2
2022-11-21T22:15:43.037Z,4.3
2022-11-21T22:35:45.210Z,4.2
2022-11-21T22:45:45.798Z,4.2
2022-11-21T22:55:46.659Z,4.2
2022-11-21T23:05:47.295Z,4.3
2022-11-21T23:15:47.499Z,4.3
2022-11-21T23:25:47.726Z,4.3
2022-11-21T23:35:48.596Z,4.3
2022-11-21T23:45:49.668Z,4.3
2022-11-21T23:55:50.120Z,4.3
